KDVOKCIC

Guest
Details From KDVO - GNOSS FLD
To KCIC - CHICO MUNI
Flight Number -
Tags generated
Created
Modified
Stats Distance 104 nm / 193 km
Max Altitude 13,800 ft / 4,206 m
Waypoints 3
Social Downloads 1
Likes 0
Share VATSIM

Download

Looking for another format? Having issues loading an existing format? Contact us
Advertisement - Login to hide

Notes

Basic altitude profile: - Ascent Rate: 2500ft/min - Ascent Speed: 250kts - Cruise Altitude: 35000ft - Cruise Speed: 420kts - Descent Rate: 1500ft/min - Descent Speed: 250kts

Route

KDVO WUSHU KCIC

ID Type Via Altitude Latitude Longitude Leg Dist Tot Dist Heading (true) Name
O KDVO APT - 0 ft / 0 m 38.14360˚ -122.55612˚ - 0 nm - GNOSS FLD
WUSHU FIX - 13,800 ft / 4,206 m 38.76367˚ -122.32095˚ 38 nm 38 nm 16° / 17° -
O KCIC APT - 0 ft / 0 m 39.79526˚ -121.85887˚ 65 nm 104 nm 19° / 19° CHICO MUNI

Altitude Profile

Advertisement - Login to hide

KDVO

Details ICAO KDVO
Name GNOSS FLD
Region United States
Timezone America/Los_Angeles (UTC-8.0)
Stats Elevation 2 ft / 1 m (AMSL)
Location 38.143602° -122.556123°
Runways 1
Magnetic Variation 13.606° E

METAR

KDVO 120035Z AUTO 20004KT 10SM CLR 14/02 A3029 RMK AO2

Decode

TAF

Not found

Departure Runways

ID Width Length Bearing (true) Bearing (mag) Surface Threshold Offset Overrun Length
13 75 ft / 23 m 3,304 ft / 1,007 m 148.57° 134.96° Asphalt 0 ft / 0 m 98 ft / 30 m
31 75 ft / 23 m 3,304 ft / 1,007 m 328.57° 314.96° Asphalt 0 ft / 0 m 125 ft / 38 m

KCIC

Details ICAO KCIC (CIC)
Name CHICO MUNI
Region United States
Timezone America/Los_Angeles (UTC-8.0)
Stats Elevation 238 ft / 73 m (AMSL)
Location 39.795263° -121.858872°
Runways 2
Magnetic Variation 13.858° E

METAR

KCIC 120035Z AUTO 00000KT 10SM CLR 15/03 A3028 RMK AO1

Decode

TAF

Not found

Destination Runways

ID Width Length Bearing (true) Bearing (mag) Surface Threshold Offset Overrun Length
13L 150 ft / 46 m 6,728 ft / 2,051 m 147.53° 133.67° Asphalt 0 ft / 0 m 1,000 ft / 305 m
13R 60 ft / 18 m 3,007 ft / 916 m 147.55° 133.69° Asphalt 0 ft / 0 m 0 ft / 0 m
31L 60 ft / 18 m 3,007 ft / 916 m 327.56° 313.70° Asphalt 0 ft / 0 m 0 ft / 0 m
31R 150 ft / 46 m 6,728 ft / 2,051 m 327.53° 313.67° Asphalt 0 ft / 0 m 0 ft / 0 m

Approach Navaids

Runway Type Ident Frequency Range Bearing (true) Bearing (mag) Slope Elevation
13L Localiser ICIC 111.30 MHz 18 nm / 33 km 147.55° 133.69° - 238 ft / 73 m (AMSL)
13L Glidescope ICIC 111.30 MHz 10 nm / 19 km 147.53° 133.67° 3.00° 234 ft / 71 m (AMSL)